Time;durP1;ratioP1;P1;durP2;ratioP2;P2;SDS_P1;SDS_P2;PMS_P1;PMS_P2;Temp;Humidity;BMP_temperature;BMP_pressure;BME280_temperature;BME280_humidity;BME280_pressure;Samples;Min_cycle;Max_cycle;Signal;HPM_P1;HPM_P2
2022/12/20 07:19:14;;;;;;;;;0.00;0.00;;;;;17.43;43.75;101021.00;5140594;27;46339;-72
2022/12/20 07:21:40;;;;;;;;;1.00;1.00;;;;;17.72;44.59;100994.53;5127996;27;45273;-71
2022/12/20 07:24:06;;;;;;;;;0.00;0.00;;;;;18.25;44.79;100976.88;5111618;27;45462;-71
2022/12/20 07:26:31;;;;;;;;;1.00;1.00;;;;;18.94;45.11;100981.91;5112256;27;45899;-70
2022/12/20 07:28:57;;;;;;;;;0.50;0.50;;;;;19.63;44.82;101001.13;5108978;27;46459;-71
2022/12/20 07:31:22;;;;;;;;;0.50;0.50;;;;;20.20;44.52;101000.59;5111438;27;45470;-70
2022/12/20 07:33:48;;;;;;;;;0.00;0.00;;;;;20.41;44.06;100960.00;5110429;27;46091;-71
2022/12/20 07:36:17;;;;;;;;;0.67;0.33;;;;;21.08;43.53;101008.81;5143389;27;45582;-72
2022/12/20 07:38:42;;;;;;;;;0.00;0.00;;;;;21.22;43.14;100977.78;5133698;27;45504;-71
2022/12/20 07:41:09;;;;;;;;;1.00;1.00;;;;;21.59;43.13;100983.16;5120427;27;45502;-71
2022/12/20 07:43:34;;;;;;;;;0.00;0.00;;;;;22.00;43.19;101000.03;5110993;27;45391;-71
2022/12/20 07:46:00;;;;;;;;;1.00;1.00;;;;;22.08;42.88;100971.25;5110622;27;45882;-72
2022/12/20 07:48:25;;;;;;;;;0.00;0.00;;;;;22.46;42.37;101006.25;5110026;27;46635;-73
2022/12/20 07:50:54;;;;;;;;;0.67;0.67;;;;;22.59;42.57;100999.63;5112056;27;45363;-72
2022/12/20 07:53:21;;;;;;;;;1.00;1.00;;;;;22.81;42.12;101008.25;5111618;27;45433;-71
2022/12/20 07:55:48;;;;;;;;;0.00;0.00;;;;;23.05;42.05;101015.69;5112064;27;45527;-71
2022/12/20 07:58:14;;;;;;;;;1.00;1.00;;;;;22.97;42.06;100984.00;5110693;27;45444;-71
2022/12/20 08:00:40;;;;;;;;;1.00;1.00;;;;;23.08;41.45;100977.50;5111589;27;45509;-72
2022/12/20 08:03:11;;;;;;;;;0.33;0.33;;;;;23.41;41.66;101020.19;5111466;27;45522;-70
2022/12/20 08:05:41;;;;;;;;;1.00;1.00;;;;;23.49;41.65;101014.81;5121100;27;45516;-70
2022/12/20 08:08:07;;;;;;;;;2.33;1.00;;;;;23.56;41.49;101012.31;5123846;27;45516;-70
2022/12/20 08:10:33;;;;;;;;;0.00;0.00;;;;;23.56;41.45;100993.34;5108957;27;45531;-69
2022/12/20 08:12:58;;;;;;;;;0.00;0.00;;;;;23.66;41.10;101006.75;5123781;27;45450;-71
2022/12/20 08:15:25;;;;;;;;;0.67;0.67;;;;;23.74;41.11;101006.78;5110358;27;45588;-70
2022/12/20 08:17:50;;;;;;;;;1.00;1.00;;;;;23.79;41.13;101017.16;5110589;27;46215;-71
2022/12/20 08:20:16;;;;;;;;;1.00;1.00;;;;;23.77;40.89;101011.03;5094097;27;45486;-72
2022/12/20 08:22:42;;;;;;;;;1.33;1.00;;;;;23.92;40.80;101019.41;5103577;27;45430;-72
2022/12/20 08:25:07;;;;;;;;;0.00;0.00;;;;;23.90;40.76;101003.28;5112292;27;45469;-71
2022/12/20 08:27:33;;;;;;;;;0.00;0.00;;;;;24.01;40.63;101009.41;5117183;27;45985;-72
2022/12/20 08:29:59;;;;;;;;;0.67;0.67;;;;;24.08;40.67;101013.16;5101120;27;45450;-72
2022/12/20 08:32:24;;;;;;;;;0.00;0.00;;;;;24.07;40.72;101006.03;5095904;27;45321;-72
2022/12/20 08:34:51;;;;;;;;;0.00;0.00;;;;;24.11;40.38;100999.28;5096096;27;45380;-71
2022/12/20 08:37:17;;;;;;;;;0.33;0.33;;;;;24.10;40.47;100997.59;5107797;27;45580;-71
2022/12/20 08:39:42;;;;;;;;;1.00;1.00;;;;;24.11;40.12;100993.88;5106206;27;45382;-70
2022/12/20 08:42:08;;;;;;;;;0.33;0.33;;;;;24.26;40.16;101014.91;5095045;27;45441;-71
2022/12/20 08:44:33;;;;;;;;;1.00;1.00;;;;;24.30;39.88;101008.16;5096048;27;45501;-71
2022/12/20 08:46:58;;;;;;;;;0.00;0.00;;;;;24.31;39.91;101010.69;5096417;27;45680;-71
2022/12/20 08:49:23;;;;;;;;;1.00;1.00;;;;;24.34;40.16;101015.78;5095962;27;45827;-73
2022/12/20 08:51:49;;;;;;;;;0.67;0.67;;;;;24.38;40.10;101012.72;5099435;27;45443;-74
2022/12/20 08:54:14;;;;;;;;;0.00;0.00;;;;;24.40;40.02;101022.41;5105741;27;45537;-71
2022/12/20 08:56:39;;;;;;;;;0.00;0.00;;;;;24.34;40.12;101013.09;5109850;27;45565;-71
2022/12/20 08:59:05;;;;;;;;;0.00;0.00;;;;;24.44;39.87;101028.34;5106046;27;45441;-72
2022/12/20 09:01:32;;;;;;;;;0.00;0.00;;;;;24.41;39.53;101025.97;5095728;27;45537;-72
2022/12/20 09:03:58;;;;;;;;;0.00;0.00;;;;;24.39;39.86;101023.41;5095636;27;45654;-73
2022/12/20 09:06:24;;;;;;;;;0.00;0.00;;;;;24.43;39.41;101035.63;5095605;27;46103;-71
2022/12/20 09:08:50;;;;;;;;;0.00;0.00;;;;;24.35;39.73;101032.91;5115738;27;45695;-73
2022/12/20 09:11:23;;;;;;;;;2.00;0.00;;;;;24.41;39.66;101053.97;5113892;27;45375;-72
2022/12/20 09:13:50;;;;;;;;;0.67;0.00;;;;;24.41;39.68;101042.25;5109769;27;45407;-73
2022/12/20 09:16:19;;;;;;;;;0.00;0.00;;;;;24.44;39.66;101044.63;5096786;27;46448;-73
2022/12/20 09:18:51;;;;;;;;;0.00;0.00;;;;;24.43;39.45;101049.19;5112981;27;45543;-72
2022/12/20 09:21:17;;;;;;;;;1.00;1.00;;;;;24.50;39.61;101045.81;5100190;27;45530;-73
2022/12/20 09:23:42;;;;;;;;;0.00;0.00;;;;;24.48;39.55;101038.69;5096548;27;45615;-72
2022/12/20 09:26:12;;;;;;;;;0.00;0.00;;;;;24.57;39.19;101046.84;5113229;27;45354;-73
2022/12/20 09:28:38;;;;;;;;;0.67;0.67;;;;;24.58;39.58;101038.53;5095886;27;45475;-73
2022/12/20 09:31:07;;;;;;;;;0.00;0.00;;;;;24.65;39.32;101040.56;5103730;27;45336;-72
2022/12/20 09:33:33;;;;;;;;;0.00;0.00;;;;;24.68;38.82;101045.69;5096071;27;45522;-71
2022/12/20 09:36:00;;;;;;;;;1.00;0.00;;;;;24.69;39.04;101048.19;5095760;27;46395;-72
2022/12/20 09:38:27;;;;;;;;;1.00;1.00;;;;;24.72;38.82;101049.72;5116463;27;45436;-70
2022/12/20 09:40:57;;;;;;;;;1.00;1.00;;;;;24.71;38.92;101045.31;5114425;27;45396;-71
2022/12/20 09:43:22;;;;;;;;;0.67;0.67;;;;;24.73;38.98;101046.00;5099362;27;45517;-72
2022/12/20 09:45:52;;;;;;;;;1.00;1.00;;;;;24.76;38.94;101044.81;5096893;27;46453;-71
2022/12/20 09:48:26;;;;;;;;;1.00;1.00;;;;;24.74;38.75;101026.81;5095842;27;45484;-71
2022/12/20 09:51:09;;;;;;;;;2.00;1.00;;;;;24.83;38.70;101027.72;5099879;27;45414;-71
2022/12/20 09:53:53;;;;;;;;;1.00;1.00;;;;;24.87;38.76;101030.94;5103716;27;45410;-70
2022/12/20 09:56:26;;;;;;;;;0.00;0.00;;;;;24.88;38.68;101023.66;5090143;27;46584;-72
2022/12/20 09:59:05;;;;;;;;;2.33;2.00;;;;;24.94;38.54;101033.81;5095099;27;45339;-70
2022/12/20 10:01:35;;;;;;;;;1.67;1.00;;;;;24.98;38.63;101025.13;5095713;27;45596;-70
2022/12/20 10:04:05;;;;;;;;;1.00;1.00;;;;;25.00;38.61;101024.97;5090800;27;45498;-72
2022/12/20 10:06:50;;;;;;;;;4.00;1.00;;;;;25.03;38.73;101019.22;5089834;27;46407;-71
2022/12/20 10:09:35;;;;;;;;;1.00;1.00;;;;;25.06;38.57;101024.28;5085255;27;45444;-71
2022/12/20 10:12:18;;;;;;;;;0.33;0.00;;;;;25.08;38.64;101019.53;5093117;27;45402;-71
2022/12/20 10:15:04;;;;;;;;;1.67;1.00;;;;;25.16;38.68;101028.69;5092018;27;45439;-72
2022/12/20 10:18:14;;;;;;;;;1.00;1.00;;;;;25.22;38.58;101022.56;5091145;27;46212;-72
2022/12/20 10:20:48;;;;;;;;;1.67;1.00;;;;;25.24;38.36;101023.22;5001037;28;45561;-75
2022/12/20 10:23:27;;;;;;;;;0.00;0.00;;;;;25.25;38.44;101019.50;5010030;28;45536;-73
2022/12/20 10:25:55;;;;;;;;;1.00;1.00;;;;;25.24;38.35;101017.81;4994322;28;46029;-75
2022/12/20 10:28:29;;;;;;;;;2.00;2.00;;;;;25.23;38.60;101011.53;5004267;28;46067;-79
2022/12/20 10:30:59;;;;;;;;;2.67;1.00;;;;;25.22;38.64;101000.84;5001699;28;45510;-70
2022/12/20 10:33:26;;;;;;;;;1.00;1.00;;;;;25.19;38.41;101007.47;5009429;28;45403;-72
2022/12/20 10:35:52;;;;;;;;;1.00;1.00;;;;;25.21;38.26;101008.13;5011518;28;45433;-73
2022/12/20 10:38:17;;;;;;;;;1.00;1.00;;;;;25.23;38.49;101002.53;5010985;28;45460;-72
2022/12/20 10:40:58;;;;;;;;;3.00;1.67;;;;;25.24;39.00;101004.22;5006093;28;45460;-72
2022/12/20 10:43:24;;;;;;;;;1.33;1.00;;;;;25.24;38.61;100996.94;5010316;28;45395;-72
2022/12/20 10:45:59;;;;;;;;;0.67;0.67;;;;;25.33;38.22;101005.03;5019060;28;45598;-71
2022/12/20 10:48:35;;;;;;;;;0.67;0.67;;;;;25.20;38.60;100981.13;4995719;28;47064;-74
2022/12/20 10:51:22;;;;;;;;;1.00;1.00;;;;;25.30;38.69;100994.53;5013795;28;45319;-74
2022/12/20 10:53:59;;;;;;;;;1.00;1.00;;;;;25.28;37.93;100978.41;5001788;28;45873;-73
2022/12/20 10:56:30;;;;;;;;;4.00;1.00;;;;;25.53;38.51;101005.47;5026182;27;45911;-75
2022/12/20 10:58:57;;;;;;;;;5.67;2.00;;;;;25.55;37.67;100992.63;5094549;27;45433;-74
2022/12/20 11:01:30;;;;;;;;;1.00;1.00;;;;;25.72;38.27;101006.97;5087899;27;46459;-75
2022/12/20 11:04:04;;;;;;;;;1.00;1.00;;;;;25.76;38.36;100988.44;5088533;27;45530;-74
2022/12/20 11:06:35;;;;;;;;;1.00;1.00;;;;;25.88;38.37;101002.47;5093532;27;45476;-73
2022/12/20 11:09:25;;;;;;;;;6.00;2.00;;;;;25.92;37.85;100999.22;5092042;27;46296;-72
2022/12/20 11:12:15;;;;;;;;;1.00;1.00;;;;;25.98;38.20;100988.63;5094349;27;45328;-73
2022/12/20 11:14:43;;;;;;;;;1.00;1.00;;;;;26.03;37.81;101000.69;5084392;27;45512;-71
2022/12/20 11:17:26;;;;;;;;;3.00;2.00;;;;;26.09;37.61;100988.25;5093595;27;45708;-71
2022/12/20 11:20:12;;;;;;;;;2.33;1.33;;;;;26.12;37.85;100987.88;5091300;27;46526;-73
2022/12/20 11:23:03;;;;;;;;;1.33;1.33;;;;;26.13;37.56;100984.16;5091715;27;45603;-74
2022/12/20 11:25:59;;;;;;;;;2.00;2.00;;;;;26.13;37.76;100991.44;5100008;27;46704;-69
2022/12/20 11:28:39;;;;;;;;;1.00;1.00;;;;;26.09;37.41;100981.94;5095800;27;45409;-69
2022/12/20 11:31:35;;;;;;;;;2.00;0.67;;;;;26.13;37.38;100981.44;5091947;27;46538;-72
2022/12/20 11:34:18;;;;;;;;;2.67;2.00;;;;;26.14;37.90;100982.25;5093185;27;45325;-72
2022/12/20 11:37:07;;;;;;;;;3.33;0.33;;;;;26.14;37.60;100977.66;5094517;27;45430;-73
2022/12/20 11:39:49;;;;;;;;;0.33;0.33;;;;;26.14;37.55;100966.78;5075246;27;45674;-72
2022/12/20 11:42:46;;;;;;;;;2.33;1.00;;;;;26.08;37.25;100940.31;5091557;27;46329;-72
2022/12/20 11:45:50;;;;;;;;;1.00;1.00;;;;;26.17;37.79;100939.22;5029723;28;45468;-72
2022/12/20 11:48:44;;;;;;;;;1.00;1.00;;;;;26.23;37.74;100947.69;4952058;28;45575;-73
2022/12/20 11:51:22;;;;;;;;;1.00;1.00;;;;;26.26;37.29;100941.91;4954220;28;45359;-73
2022/12/20 11:54:00;;;;;;;;;0.67;0.67;;;;;26.27;37.14;100925.41;4948983;28;45616;-73
2022/12/20 11:56:36;;;;;;;;;0.00;0.00;;;;;26.27;37.33;100925.41;4949068;28;45816;-73
2022/12/20 11:59:16;;;;;;;;;0.67;0.67;;;;;26.23;37.18;100921.31;4947269;28;45418;-74
2022/12/20 12:02:21;;;;;;;;;2.33;1.00;;;;;26.14;37.39;100909.66;4966246;28;45544;-72
2022/12/20 12:04:54;;;;;;;;;3.00;1.67;;;;;26.02;37.38;100895.66;4949789;28;47401;-73
2022/12/20 12:07:32;;;;;;;;;1.00;1.00;;;;;25.87;37.43;100884.69;4950132;28;45502;-72
2022/12/20 12:10:08;;;;;;;;;0.67;0.67;;;;;25.86;37.11;100871.28;4948301;28;45591;-74
2022/12/20 12:12:42;;;;;;;;;1.00;1.00;;;;;25.76;37.15;100866.09;4952217;28;45583;-74
2022/12/20 12:15:13;;;;;;;;;2.00;1.00;;;;;26.01;37.06;100895.81;4952532;28;46192;-74
2022/12/20 12:17:47;;;;;;;;;1.33;0.67;;;;;25.98;36.77;100890.75;4952948;28;46290;-75
2022/12/20 12:20:27;;;;;;;;;2.00;2.00;;;;;25.82;37.31;100859.94;4947948;28;45454;-73
2022/12/20 12:23:01;;;;;;;;;1.33;1.00;;;;;25.79;37.33;100835.84;5012253;27;45551;-73
2022/12/20 12:25:27;;;;;;;;;1.00;1.00;;;;;26.07;36.67;100867.06;5095598;27;45488;-73
2022/12/20 12:27:52;;;;;;;;;2.67;1.00;;;;;26.19;36.62;100862.88;5095536;27;45414;-74
2022/12/20 12:30:18;;;;;;;;;3.00;2.00;;;;;26.12;36.59;100851.88;5097002;27;45309;-73
2022/12/20 12:33:02;;;;;;;;;1.33;1.00;;;;;26.20;37.03;100850.13;5094467;27;45635;-73
2022/12/20 12:35:51;;;;;;;;;1.33;1.33;;;;;26.47;37.13;100883.22;5095976;27;46541;-72
2022/12/20 12:38:39;;;;;;;;;1.00;1.00;;;;;26.48;37.09;100866.69;5095885;27;46851;-73
2022/12/20 12:41:39;;;;;;;;;2.00;1.00;;;;;26.52;36.93;100873.47;5095292;27;45446;-72
2022/12/20 12:44:32;;;;;;;;;4.00;1.00;;;;;26.51;36.74;100877.22;5094775;27;45513;-75
2022/12/20 12:47:20;;;;;;;;;3.33;1.33;;;;;26.25;36.68;100840.41;5090541;27;45619;-72
2022/12/20 12:49:50;;;;;;;;;1.67;1.67;;;;;26.20;36.64;100831.06;5084615;27;45626;-72
2022/12/20 12:52:41;;;;;;;;;4.67;3.33;;;;;26.35;36.20;100869.25;5098054;27;45387;-73
2022/12/20 12:55:34;;;;;;;;;4.00;3.33;;;;;26.24;36.04;100855.00;5094438;27;45504;-73
2022/12/20 12:58:21;;;;;;;;;2.33;1.33;;;;;26.12;36.03;100849.16;5095087;27;45481;-72
2022/12/20 13:00:48;;;;;;;;;2.00;2.00;;;;;26.05;36.43;100846.34;5097482;27;45503;-72
2022/12/20 13:03:15;;;;;;;;;1.00;1.00;;;;;25.98;35.94;100852.66;5096150;27;45347;-73
2022/12/20 13:05:41;;;;;;;;;1.33;1.33;;;;;25.89;36.57;100846.47;5095540;27;47031;-73
2022/12/20 13:08:46;;;;;;;;;2.33;2.00;;;;;25.88;36.19;100855.66;5093945;27;45547;-72
2022/12/20 13:11:27;;;;;;;;;1.00;1.00;;;;;25.83;35.93;100861.63;5096126;27;45392;-72
2022/12/20 13:14:22;;;;;;;;;2.00;2.00;;;;;25.79;36.27;100849.44;5096853;27;45416;-73
2022/12/20 13:16:52;;;;;;;;;2.33;2.33;;;;;25.76;36.08;100849.78;5095846;27;45579;-73
2022/12/20 13:19:30;;;;;;;;;2.00;2.00;;;;;25.74;35.73;100851.81;5095969;27;45419;-73
2022/12/20 13:22:17;;;;;;;;;2.00;2.00;;;;;25.68;36.26;100847.97;5095192;27;45448;-73
2022/12/20 13:24:49;;;;;;;;;2.00;2.00;;;;;25.65;35.82;100851.91;5094448;27;45763;-73
2022/12/20 13:27:36;;;;;;;;;2.00;2.00;;;;;25.59;35.65;100847.16;5096881;27;45540;-73
2022/12/20 13:30:09;;;;;;;;;1.67;1.67;;;;;25.54;35.93;100841.41;5095404;27;45996;-72
2022/12/20 13:32:46;;;;;;;;;2.00;2.00;;;;;25.51;35.91;100844.50;5095119;27;45441;-73
2022/12/20 13:35:23;;;;;;;;;4.33;3.00;;;;;25.48;35.60;100842.13;5096937;27;45744;-72
2022/12/20 13:38:05;;;;;;;;;3.67;2.33;;;;;25.46;35.59;100830.59;5095994;27;45524;-73
2022/12/20 13:40:49;;;;;;;;;1.67;1.67;;;;;25.39;36.04;100825.03;5111465;27;46137;-72
2022/12/20 13:43:31;;;;;;;;;2.00;2.00;;;;;25.45;35.86;100829.75;5096003;27;45813;-73
2022/12/20 13:46:11;;;;;;;;;2.00;2.00;;;;;25.41;35.94;100816.72;5095463;27;45461;-73
2022/12/20 13:48:45;;;;;;;;;1.00;1.00;;;;;25.46;35.79;100822.47;5095203;27;45603;-73
2022/12/20 13:51:16;;;;;;;;;1.00;1.00;;;;;25.45;35.70;100813.44;5095856;27;46257;-72
2022/12/20 13:53:51;;;;;;;;;2.00;2.00;;;;;25.47;35.52;100810.56;5094131;27;45381;-73
2022/12/20 13:56:48;;;;;;;;;1.00;1.00;;;;;25.48;35.29;100807.66;5094065;27;45478;-75
2022/12/20 13:59:21;;;;;;;;;1.33;1.33;;;;;25.42;35.61;100804.81;5086423;27;45631;-74
2022/12/20 14:01:52;;;;;;;;;1.00;1.00;;;;;25.51;35.60;100811.88;5092282;27;46070;-74
2022/12/20 14:04:25;;;;;;;;;4.33;3.33;;;;;25.50;35.74;100816.47;5091730;27;45369;-73
2022/12/20 14:07:00;;;;;;;;;2.00;1.00;;;;;25.50;35.88;100815.63;5091709;27;45568;-74
2022/12/20 14:09:32;;;;;;;;;2.00;2.00;;;;;25.50;35.38;100802.06;5096296;27;45431;-72
2022/12/20 14:12:14;;;;;;;;;2.00;2.00;;;;;25.49;35.41;100800.34;5094404;27;47102;-73
2022/12/20 14:14:47;;;;;;;;;1.00;1.00;;;;;25.41;35.40;100803.97;5095124;27;45422;-73
2022/12/20 14:17:20;;;;;;;;;1.00;1.00;;;;;25.38;35.59;100801.63;5091353;27;45495;-74
2022/12/20 14:19:45;;;;;;;;;2.00;2.00;;;;;25.30;35.21;100793.50;5096547;27;45391;-73
2022/12/20 14:22:11;;;;;;;;;2.00;2.00;;;;;25.33;35.43;100801.28;5088638;27;46153;-74
2022/12/20 14:24:42;;;;;;;;;1.33;1.33;;;;;25.33;35.56;100793.13;5095523;27;46048;-73
2022/12/20 14:27:12;;;;;;;;;2.00;2.00;;;;;25.30;35.83;100790.78;5095324;27;45391;-73
2022/12/20 14:29:40;;;;;;;;;2.00;1.00;;;;;25.30;35.43;100805.22;5094638;27;45584;-73
2022/12/20 14:32:16;;;;;;;;;2.00;2.00;;;;;25.31;35.59;100803.34;5094959;27;45441;-72
2022/12/20 14:34:42;;;;;;;;;2.00;2.00;;;;;25.29;35.77;100789.94;5095283;27;45684;-72
2022/12/20 14:37:27;;;;;;;;;1.00;1.00;;;;;25.30;35.30;100797.06;5091777;27;45474;-73
2022/12/20 14:40:22;;;;;;;;;1.33;1.33;;;;;25.27;35.56;100789.28;5099452;27;46856;-73
2022/12/20 14:42:48;;;;;;;;;2.00;2.00;;;;;25.22;35.05;100786.25;5078778;27;46125;-74
2022/12/20 14:45:14;;;;;;;;;5.00;2.67;;;;;25.23;35.48;100786.09;5093512;27;45540;-76
2022/12/20 14:47:54;;;;;;;;;2.00;0.00;;;;;25.20;35.47;100778.28;5093812;27;45503;-72
2022/12/20 14:50:25;;;;;;;;;6.67;2.00;;;;;25.27;35.35;100786.56;5081051;27;45399;-72
2022/12/20 14:52:51;;;;;;;;;2.00;2.00;;;;;25.28;35.29;100785.53;5087330;27;46608;-72
2022/12/20 14:55:43;;;;;;;;;3.67;2.00;;;;;25.38;35.60;100785.31;5091774;27;45601;-71
2022/12/20 14:58:26;;;;;;;;;2.00;2.00;;;;;25.43;35.71;100769.31;5085844;27;45610;-71
2022/12/20 15:01:01;;;;;;;;;2.00;2.00;;;;;25.47;35.27;100769.78;5104387;27;45587;-73
2022/12/20 15:03:27;;;;;;;;;3.67;2.33;;;;;25.48;35.49;100769.63;5089208;27;45397;-71
2022/12/20 15:05:57;;;;;;;;;2.00;2.00;;;;;25.50;35.27;100758.56;5084711;27;45469;-73
2022/12/20 15:08:27;;;;;;;;;4.67;3.00;;;;;25.66;35.60;100763.03;5085540;27;45763;-71
2022/12/20 15:11:00;;;;;;;;;2.00;2.00;;;;;25.78;35.90;100760.72;5089211;27;45669;-73
2022/12/20 15:13:30;;;;;;;;;4.00;3.00;;;;;25.89;35.51;100765.75;5093202;27;45533;-71
2022/12/20 15:15:58;;;;;;;;;4.67;3.00;;;;;26.00;35.51;100752.72;5084128;27;45517;-73
2022/12/20 15:18:24;;;;;;;;;4.33;3.33;;;;;26.07;36.02;100755.56;5087306;27;45576;-74
2022/12/20 15:20:58;;;;;;;;;2.00;2.00;;;;;26.12;35.25;100762.09;5088869;27;45476;-72
2022/12/20 15:23:24;;;;;;;;;3.33;2.33;;;;;26.14;35.50;100754.63;5083323;27;46219;-72
2022/12/20 15:25:50;;;;;;;;;2.00;2.00;;;;;26.22;35.43;100748.25;5079458;27;45438;-71
2022/12/20 15:28:17;;;;;;;;;4.00;4.00;;;;;26.26;35.62;100749.59;5101777;27;45559;-70
2022/12/20 15:30:44;;;;;;;;;2.00;2.00;;;;;26.22;35.06;100745.53;5090660;27;45395;-73
2022/12/20 15:33:16;;;;;;;;;5.33;3.33;;;;;26.27;35.27;100754.00;5091538;27;45993;-74
2022/12/20 15:35:42;;;;;;;;;4.00;2.00;;;;;26.26;35.53;100756.91;5089351;27;45529;-72
2022/12/20 15:38:15;;;;;;;;;3.00;1.67;;;;;26.27;35.89;100761.31;5081985;27;45458;-73
2022/12/20 15:40:40;;;;;;;;;4.00;2.00;;;;;26.30;35.50;100753.66;5090935;27;45527;-70
2022/12/20 15:43:11;;;;;;;;;2.67;1.67;;;;;26.25;35.18;100750.63;5079132;27;46409;-71
2022/12/20 15:45:36;;;;;;;;;3.00;3.00;;;;;26.24;35.48;100764.38;5091566;27;45556;-70
2022/12/20 15:48:01;;;;;;;;;1.00;1.00;;;;;26.20;35.33;100749.47;5097736;27;46039;-70
2022/12/20 15:50:27;;;;;;;;;3.33;1.67;;;;;26.24;35.28;100750.78;5107973;27;45863;-70
2022/12/20 15:52:53;;;;;;;;;1.00;1.00;;;;;26.30;35.50;100760.94;5090954;27;45800;-70
2022/12/20 15:55:18;;;;;;;;;3.00;3.00;;;;;26.15;35.18;100729.09;5087243;27;45431;-70
2022/12/20 15:57:44;;;;;;;;;4.33;1.00;;;;;26.29;35.54;100737.50;5088556;27;45484;-70
2022/12/20 16:00:11;;;;;;;;;4.00;1.33;;;;;26.28;35.58;100727.66;5096086;27;45545;-70
2022/12/20 16:02:36;;;;;;;;;1.00;1.00;;;;;26.29;35.60;100721.19;5094092;27;45433;-71
2022/12/20 16:05:03;;;;;;;;;4.00;3.00;;;;;26.40;35.28;100736.19;5095589;27;45445;-71
2022/12/20 16:07:28;;;;;;;;;2.00;2.00;;;;;26.50;35.31;100742.19;5095941;27;45519;-73
2022/12/20 16:09:53;;;;;;;;;3.00;2.33;;;;;26.46;35.26;100737.28;5093410;27;45359;-72
2022/12/20 16:12:30;;;;;;;;;3.33;2.00;;;;;26.41;35.42;100729.72;5096649;27;46282;-73
2022/12/20 16:14:56;;;;;;;;;2.00;2.00;;;;;26.40;35.54;100728.03;5094603;27;45900;-73
2022/12/20 16:17:21;;;;;;;;;2.00;2.00;;;;;26.40;35.49;100730.75;5093726;27;45934;-73
2022/12/20 16:19:47;;;;;;;;;2.00;2.00;;;;;26.36;35.53;100732.97;5094997;27;45600;-73
2022/12/20 16:22:18;;;;;;;;;2.00;2.00;;;;;26.38;35.09;100732.81;5096214;27;46199;-73
2022/12/20 16:24:44;;;;;;;;;2.33;2.33;;;;;26.55;35.12;100758.78;5096312;27;45492;-73
2022/12/20 16:27:09;;;;;;;;;2.00;2.00;;;;;26.34;35.55;100724.19;5096489;27;45523;-73
2022/12/20 16:29:34;;;;;;;;;3.00;2.00;;;;;26.30;35.11;100717.41;5096181;27;45465;-73
2022/12/20 16:32:00;;;;;;;;;1.00;1.00;;;;;26.35;35.04;100725.03;5095760;27;46618;-73
2022/12/20 16:34:25;;;;;;;;;3.00;3.00;;;;;26.64;35.57;100767.69;5097000;27;45545;-73
2022/12/20 16:36:51;;;;;;;;;2.00;1.00;;;;;26.44;35.37;100710.28;5093623;27;45453;-73
2022/12/20 16:39:16;;;;;;;;;3.00;3.00;;;;;26.53;35.27;100728.19;5094904;27;45553;-73
2022/12/20 16:41:43;;;;;;;;;2.00;2.00;;;;;26.57;35.47;100724.06;5095843;27;45533;-73
2022/12/20 16:44:13;;;;;;;;;2.67;2.67;;;;;26.66;34.94;100727.53;5095691;27;45433;-73
2022/12/20 16:46:39;;;;;;;;;2.00;2.00;;;;;26.65;35.35;100722.28;5093231;27;45548;-72
2022/12/20 16:49:04;;;;;;;;;2.67;2.00;;;;;26.70;34.88;100722.53;5095474;27;45811;-71
2022/12/20 16:51:37;;;;;;;;;2.00;1.00;;;;;26.72;34.43;100750.41;5095221;27;45516;-70
2022/12/20 16:54:12;;;;;;;;;2.00;2.00;;;;;26.49;35.01;100723.31;5095944;27;45480;-70
2022/12/20 16:56:38;;;;;;;;;4.00;3.00;;;;;26.54;35.36;100743.50;5095745;27;45387;-70
2022/12/20 16:59:03;;;;;;;;;3.33;3.00;;;;;26.56;34.76;100757.75;5096916;27;45269;-71
2022/12/20 17:01:37;;;;;;;;;2.00;2.00;;;;;26.58;35.39;100761.13;5093929;27;45390;-72
2022/12/20 17:04:04;;;;;;;;;2.00;1.00;;;;;26.56;34.85;100755.03;5093957;27;45586;-71
2022/12/20 17:06:31;;;;;;;;;1.67;0.33;;;;;26.60;34.96;100760.94;5095592;27;45717;-70
2022/12/20 17:08:56;;;;;;;;;1.00;1.00;;;;;26.62;34.84;100753.44;5093763;27;45473;-71
2022/12/20 17:11:25;;;;;;;;;3.33;2.33;;;;;26.65;35.52;100744.88;5096341;27;46166;-73
2022/12/20 17:13:53;;;;;;;;;1.00;1.00;;;;;26.69;35.24;100742.63;5088529;27;45494;-73
2022/12/20 17:16:20;;;;;;;;;2.00;2.00;;;;;26.65;35.45;100734.00;5095584;27;45513;-76
2022/12/20 17:18:47;;;;;;;;;3.00;2.00;;;;;26.79;34.79;100747.78;5093770;27;45426;-74
2022/12/20 17:21:39;;;;;;;;;3.00;2.00;;;;;26.83;35.61;100759.97;5095924;27;46272;-73
2022/12/20 17:24:05;;;;;;;;;2.00;2.00;;;;;26.84;35.52;100754.34;5095434;27;45636;-73
2022/12/20 17:26:32;;;;;;;;;2.00;2.00;;;;;26.90;35.39;100755.47;5096998;27;45448;-72
2022/12/20 17:28:59;;;;;;;;;1.00;1.00;;;;;26.94;35.36;100762.22;5095545;27;45397;-71
2022/12/20 17:31:33;;;;;;;;;4.67;1.67;;;;;26.97;35.00;100752.81;5095619;27;47202;-72
2022/12/20 17:34:00;;;;;;;;;2.33;2.33;;;;;27.00;34.88;100751.59;5092962;27;45408;-74
2022/12/20 17:36:25;;;;;;;;;2.33;1.00;;;;;27.01;35.63;100764.22;5095986;27;45763;-71
2022/12/20 17:38:52;;;;;;;;;2.00;2.00;;;;;26.96;35.47;100749.28;5088714;27;45553;-71
2022/12/20 17:41:23;;;;;;;;;4.00;2.67;;;;;27.03;34.92;100749.34;5096520;27;45840;-71
2022/12/20 17:43:50;;;;;;;;;1.00;1.00;;;;;27.05;35.17;100751.91;5095157;27;45620;-71
2022/12/20 17:46:16;;;;;;;;;1.67;1.67;;;;;27.09;35.25;100750.44;5096088;27;45334;-71
2022/12/20 17:48:41;;;;;;;;;3.67;2.33;;;;;27.12;35.66;100758.25;5094724;27;45410;-73
2022/12/20 17:51:14;;;;;;;;;1.67;1.67;;;;;27.15;34.99;100762.47;5095077;27;45324;-72
2022/12/20 17:53:40;;;;;;;;;3.67;3.00;;;;;27.18;35.00;100762.91;5094040;27;45531;-72
2022/12/20 17:56:11;;;;;;;;;1.67;1.67;;;;;27.20;35.52;100755.41;5092906;27;45518;-74
2022/12/20 17:58:36;;;;;;;;;3.00;3.00;;;;;27.23;35.38;100751.44;5093045;27;45526;-72
2022/12/20 18:01:02;;;;;;;;;4.00;2.67;;;;;27.34;35.10;100771.91;5092358;27;46043;-71
2022/12/20 18:03:27;;;;;;;;;2.00;2.00;;;;;27.40;34.78;100773.00;5089978;27;45549;-71
2022/12/20 18:05:52;;;;;;;;;2.33;2.33;;;;;27.42;34.94;100771.75;5093292;27;45950;-72
2022/12/20 18:08:18;;;;;;;;;4.00;4.00;;;;;27.41;35.36;100772.81;5093814;27;45471;-71
2022/12/20 18:10:44;;;;;;;;;4.00;4.00;;;;;27.32;35.04;100766.63;5093373;27;45585;-71
2022/12/20 18:13:10;;;;;;;;;3.33;3.33;;;;;27.25;34.42;100781.25;5093630;27;45374;-70
2022/12/20 18:15:37;;;;;;;;;3.67;2.67;;;;;27.10;35.00;100782.94;5095344;27;45350;-71
2022/12/20 18:18:03;;;;;;;;;2.67;2.33;;;;;27.03;34.51;100784.75;5094163;27;45583;-71
2022/12/20 18:20:28;;;;;;;;;3.00;3.00;;;;;26.87;34.14;100765.88;5087361;27;46851;-71
2022/12/20 18:22:54;;;;;;;;;3.67;3.67;;;;;26.78;34.67;100787.78;5090184;27;45524;-70
2022/12/20 18:25:19;;;;;;;;;3.00;3.00;;;;;26.71;34.25;100789.56;5082988;27;45626;-71
2022/12/20 18:27:44;;;;;;;;;4.00;4.00;;;;;26.60;34.22;100779.16;5094837;27;45353;-72
2022/12/20 18:30:11;;;;;;;;;4.00;4.00;;;;;26.54;34.36;100799.81;5086652;27;45612;-71
2022/12/20 18:32:37;;;;;;;;;4.00;4.00;;;;;26.46;34.61;100798.03;5078767;27;45430;-71
2022/12/20 18:35:03;;;;;;;;;3.67;3.00;;;;;26.32;34.54;100786.06;5091493;27;45468;-71
2022/12/20 18:37:28;;;;;;;;;4.00;4.00;;;;;26.36;34.30;100797.47;5089532;27;45507;-71
2022/12/20 18:39:54;;;;;;;;;4.33;4.33;;;;;26.30;34.32;100802.63;5090179;27;45916;-71
2022/12/20 18:42:19;;;;;;;;;2.00;2.00;;;;;26.26;34.52;100803.16;5088109;27;45406;-71
2022/12/20 18:44:44;;;;;;;;;4.00;4.00;;;;;26.22;34.40;100799.06;5089525;27;45544;-70
2022/12/20 18:47:10;;;;;;;;;3.00;3.00;;;;;26.18;34.68;100798.63;5078095;27;45427;-70
2022/12/20 18:49:36;;;;;;;;;3.67;3.67;;;;;26.15;34.43;100813.44;5089563;27;45447;-70
2022/12/20 18:52:02;;;;;;;;;4.00;4.00;;;;;26.13;34.43;100811.94;5093516;27;45414;-70
2022/12/20 18:54:29;;;;;;;;;6.67;4.00;;;;;26.05;34.48;100799.25;5083994;27;45669;-69
2022/12/20 18:56:55;;;;;;;;;3.00;3.00;;;;;26.05;33.96;100810.13;5084685;27;45470;-71
2022/12/20 18:59:20;;;;;;;;;3.00;3.00;;;;;25.97;33.89;100796.59;5090301;27;46730;-71
2022/12/20 19:01:46;;;;;;;;;4.00;4.00;;;;;25.95;34.34;100793.22;5093199;27;45837;-71
2022/12/20 19:04:11;;;;;;;;;3.67;3.67;;;;;25.92;34.50;100803.44;5076100;27;45454;-71